sensor_id;sensor_type;location;lat;lon;timestamp;P1;durP1;ratioP1;P2;durP2;ratioP2
583;SDS011;27024;54.068;12.116;2024-02-26T00:00:12;6.35;;;3.70;;
583;SDS011;27024;54.068;12.116;2024-02-26T00:02:39;7.28;;;3.33;;
583;SDS011;27024;54.068;12.116;2024-02-26T00:05:07;5.50;;;3.15;;
583;SDS011;27024;54.068;12.116;2024-02-26T00:07:34;4.75;;;3.08;;
583;SDS011;27024;54.068;12.116;2024-02-26T00:10:01;5.50;;;3.22;;
583;SDS011;27024;54.068;12.116;2024-02-26T00:12:29;6.30;;;3.28;;
583;SDS011;27024;54.068;12.116;2024-02-26T00:14:56;7.00;;;3.67;;
583;SDS011;27024;54.068;12.116;2024-02-26T00:17:25;7.05;;;3.58;;
583;SDS011;27024;54.068;12.116;2024-02-26T00:19:52;6.72;;;4.55;;
583;SDS011;27024;54.068;12.116;2024-02-26T00:22:19;6.68;;;3.45;;
583;SDS011;27024;54.068;12.116;2024-02-26T00:24:48;6.10;;;3.67;;
583;SDS011;27024;54.068;12.116;2024-02-26T00:27:15;5.88;;;3.45;;
583;SDS011;27024;54.068;12.116;2024-02-26T00:29:42;5.63;;;3.45;;
583;SDS011;27024;54.068;12.116;2024-02-26T00:32:09;7.93;;;3.20;;
583;SDS011;27024;54.068;12.116;2024-02-26T00:34:37;5.88;;;3.60;;
583;SDS011;27024;54.068;12.116;2024-02-26T00:37:04;6.07;;;3.58;;
583;SDS011;27024;54.068;12.116;2024-02-26T00:39:31;5.25;;;3.35;;
583;SDS011;27024;54.068;12.116;2024-02-26T00:41:58;6.53;;;3.60;;
583;SDS011;27024;54.068;12.116;2024-02-26T00:44:25;5.82;;;3.03;;
583;SDS011;27024;54.068;12.116;2024-02-26T00:46:52;6.00;;;3.40;;
583;SDS011;27024;54.068;12.116;2024-02-26T00:49:19;5.20;;;3.00;;
583;SDS011;27024;54.068;12.116;2024-02-26T00:51:46;6.25;;;3.42;;
583;SDS011;27024;54.068;12.116;2024-02-26T00:54:13;5.28;;;3.17;;
583;SDS011;27024;54.068;12.116;2024-02-26T00:56:40;5.15;;;2.65;;
583;SDS011;27024;54.068;12.116;2024-02-26T00:59:07;5.55;;;2.83;;
583;SDS011;27024;54.068;12.116;2024-02-26T01:01:33;3.90;;;2.45;;
583;SDS011;27024;54.068;12.116;2024-02-26T01:04:01;5.18;;;2.72;;
583;SDS011;27024;54.068;12.116;2024-02-26T01:06:28;4.90;;;2.55;;
583;SDS011;27024;54.068;12.116;2024-02-26T01:08:55;5.07;;;3.03;;
583;SDS011;27024;54.068;12.116;2024-02-26T01:11:22;5.78;;;2.75;;
583;SDS011;27024;54.068;12.116;2024-02-26T01:13:50;4.55;;;2.63;;
583;SDS011;27024;54.068;12.116;2024-02-26T01:16:23;4.68;;;2.60;;
583;SDS011;27024;54.068;12.116;2024-02-26T01:18:50;4.75;;;2.25;;
583;SDS011;27024;54.068;12.116;2024-02-26T01:21:18;4.32;;;2.95;;
583;SDS011;27024;54.068;12.116;2024-02-26T01:23:45;3.97;;;2.17;;
583;SDS011;27024;54.068;12.116;2024-02-26T01:26:12;3.92;;;2.33;;
583;SDS011;27024;54.068;12.116;2024-02-26T01:28:39;5.18;;;2.80;;
583;SDS011;27024;54.068;12.116;2024-02-26T01:31:06;4.50;;;2.40;;
583;SDS011;27024;54.068;12.116;2024-02-26T01:33:35;4.95;;;2.92;;
583;SDS011;27024;54.068;12.116;2024-02-26T01:36:03;4.72;;;2.58;;
583;SDS011;27024;54.068;12.116;2024-02-26T01:38:30;5.15;;;3.78;;
583;SDS011;27024;54.068;12.116;2024-02-26T01:40:57;5.10;;;2.88;;
583;SDS011;27024;54.068;12.116;2024-02-26T01:43:24;4.38;;;2.95;;
583;SDS011;27024;54.068;12.116;2024-02-26T01:45:51;4.75;;;3.28;;
583;SDS011;27024;54.068;12.116;2024-02-26T01:48:18;5.68;;;2.97;;
583;SDS011;27024;54.068;12.116;2024-02-26T01:50:45;4.47;;;3.38;;
583;SDS011;27024;54.068;12.116;2024-02-26T01:53:12;5.75;;;2.80;;
583;SDS011;27024;54.068;12.116;2024-02-26T01:55:40;3.85;;;2.40;;
583;SDS011;27024;54.068;12.116;2024-02-26T01:58:07;6.88;;;3.88;;
583;SDS011;27024;54.068;12.116;2024-02-26T02:00:35;5.07;;;2.78;;
583;SDS011;27024;54.068;12.116;2024-02-26T02:03:03;4.93;;;2.92;;
583;SDS011;27024;54.068;12.116;2024-02-26T02:05:31;4.03;;;2.63;;
583;SDS011;27024;54.068;12.116;2024-02-26T02:07:58;3.92;;;2.65;;
583;SDS011;27024;54.068;12.116;2024-02-26T02:10:26;5.32;;;2.95;;
583;SDS011;27024;54.068;12.116;2024-02-26T02:12:53;5.15;;;3.25;;
583;SDS011;27024;54.068;12.116;2024-02-26T02:15:20;4.47;;;2.58;;
583;SDS011;27024;54.068;12.116;2024-02-26T02:17:48;5.68;;;3.60;;
583;SDS011;27024;54.068;12.116;2024-02-26T02:20:15;5.57;;;2.67;;
583;SDS011;27024;54.068;12.116;2024-02-26T02:22:44;4.70;;;2.65;;
583;SDS011;27024;54.068;12.116;2024-02-26T02:25:11;4.65;;;2.65;;
583;SDS011;27024;54.068;12.116;2024-02-26T02:27:39;5.53;;;2.83;;
583;SDS011;27024;54.068;12.116;2024-02-26T02:30:06;5.50;;;3.28;;
583;SDS011;27024;54.068;12.116;2024-02-26T02:32:35;6.55;;;3.20;;
583;SDS011;27024;54.068;12.116;2024-02-26T02:35:06;4.65;;;2.65;;
583;SDS011;27024;54.068;12.116;2024-02-26T02:37:34;4.30;;;3.45;;
583;SDS011;27024;54.068;12.116;2024-02-26T02:40:00;3.85;;;2.42;;
583;SDS011;27024;54.068;12.116;2024-02-26T02:42:28;4.88;;;3.13;;
583;SDS011;27024;54.068;12.116;2024-02-26T02:44:55;4.63;;;2.95;;
583;SDS011;27024;54.068;12.116;2024-02-26T02:47:22;5.82;;;3.00;;
583;SDS011;27024;54.068;12.116;2024-02-26T02:49:49;4.18;;;2.83;;
583;SDS011;27024;54.068;12.116;2024-02-26T02:52:16;3.70;;;2.63;;
583;SDS011;27024;54.068;12.116;2024-02-26T02:54:43;4.75;;;3.53;;
583;SDS011;27024;54.068;12.116;2024-02-26T02:57:09;4.88;;;3.03;;
583;SDS011;27024;54.068;12.116;2024-02-26T02:59:37;4.82;;;3.78;;
583;SDS011;27024;54.068;12.116;2024-02-26T03:02:04;4.70;;;2.72;;
583;SDS011;27024;54.068;12.116;2024-02-26T03:04:31;6.30;;;2.97;;
583;SDS011;27024;54.068;12.116;2024-02-26T03:06:58;4.95;;;3.05;;
583;SDS011;27024;54.068;12.116;2024-02-26T03:09:27;4.78;;;3.17;;
583;SDS011;27024;54.068;12.116;2024-02-26T03:11:54;6.07;;;4.43;;
583;SDS011;27024;54.068;12.116;2024-02-26T03:14:21;4.53;;;2.67;;
583;SDS011;27024;54.068;12.116;2024-02-26T03:16:48;5.80;;;3.00;;
583;SDS011;27024;54.068;12.116;2024-02-26T03:19:15;4.75;;;2.83;;
583;SDS011;27024;54.068;12.116;2024-02-26T03:21:45;4.63;;;3.38;;
583;SDS011;27024;54.068;12.116;2024-02-26T03:24:12;5.22;;;2.90;;
583;SDS011;27024;54.068;12.116;2024-02-26T03:26:39;5.20;;;2.83;;
583;SDS011;27024;54.068;12.116;2024-02-26T03:29:06;5.05;;;2.92;;
583;SDS011;27024;54.068;12.116;2024-02-26T03:31:32;4.88;;;2.90;;
583;SDS011;27024;54.068;12.116;2024-02-26T03:33:59;6.95;;;3.65;;
583;SDS011;27024;54.068;12.116;2024-02-26T03:36:28;5.70;;;3.17;;
583;SDS011;27024;54.068;12.116;2024-02-26T03:38:55;4.10;;;2.85;;
583;SDS011;27024;54.068;12.116;2024-02-26T03:41:22;5.20;;;4.07;;
583;SDS011;27024;54.068;12.116;2024-02-26T03:43:49;4.85;;;3.40;;
583;SDS011;27024;54.068;12.116;2024-02-26T03:46:16;6.35;;;3.33;;
583;SDS011;27024;54.068;12.116;2024-02-26T03:48:42;6.07;;;4.25;;
583;SDS011;27024;54.068;12.116;2024-02-26T03:51:10;5.28;;;3.95;;
583;SDS011;27024;54.068;12.116;2024-02-26T03:53:37;5.50;;;3.88;;
583;SDS011;27024;54.068;12.116;2024-02-26T03:56:04;6.97;;;4.00;;
583;SDS011;27024;54.068;12.116;2024-02-26T03:58:32;5.50;;;3.00;;
583;SDS011;27024;54.068;12.116;2024-02-26T04:00:59;4.25;;;2.83;;
583;SDS011;27024;54.068;12.116;2024-02-26T04:03:27;6.30;;;3.42;;
583;SDS011;27024;54.068;12.116;2024-02-26T04:05:54;5.57;;;3.45;;
583;SDS011;27024;54.068;12.116;2024-02-26T04:08:21;5.00;;;3.15;;
583;SDS011;27024;54.068;12.116;2024-02-26T04:10:48;5.28;;;4.07;;
583;SDS011;27024;54.068;12.116;2024-02-26T04:13:15;5.22;;;3.13;;
583;SDS011;27024;54.068;12.116;2024-02-26T04:15:42;5.40;;;3.10;;
583;SDS011;27024;54.068;12.116;2024-02-26T04:18:09;4.32;;;2.50;;
583;SDS011;27024;54.068;12.116;2024-02-26T04:20:36;5.80;;;3.45;;
583;SDS011;27024;54.068;12.116;2024-02-26T04:23:03;5.65;;;2.75;;
583;SDS011;27024;54.068;12.116;2024-02-26T04:25:30;6.35;;;3.08;;
583;SDS011;27024;54.068;12.116;2024-02-26T04:27:57;6.15;;;3.92;;
583;SDS011;27024;54.068;12.116;2024-02-26T04:30:24;5.50;;;3.90;;
583;SDS011;27024;54.068;12.116;2024-02-26T04:32:51;4.93;;;2.70;;
583;SDS011;27024;54.068;12.116;2024-02-26T04:35:18;4.75;;;3.33;;
583;SDS011;27024;54.068;12.116;2024-02-26T04:37:45;4.63;;;2.92;;
583;SDS011;27024;54.068;12.116;2024-02-26T04:40:12;5.15;;;2.78;;
583;SDS011;27024;54.068;12.116;2024-02-26T04:42:39;5.47;;;3.13;;
583;SDS011;27024;54.068;12.116;2024-02-26T04:45:06;4.13;;;3.13;;
583;SDS011;27024;54.068;12.116;2024-02-26T04:47:35;4.45;;;2.72;;
583;SDS011;27024;54.068;12.116;2024-02-26T04:50:02;5.43;;;2.88;;
583;SDS011;27024;54.068;12.116;2024-02-26T04:52:29;5.40;;;3.05;;
583;SDS011;27024;54.068;12.116;2024-02-26T04:54:56;5.40;;;2.90;;
583;SDS011;27024;54.068;12.116;2024-02-26T04:57:23;5.43;;;3.13;;
583;SDS011;27024;54.068;12.116;2024-02-26T04:59:50;5.82;;;4.05;;
583;SDS011;27024;54.068;12.116;2024-02-26T05:02:17;5.60;;;3.70;;
583;SDS011;27024;54.068;12.116;2024-02-26T05:04:44;4.50;;;3.33;;
583;SDS011;27024;54.068;12.116;2024-02-26T05:07:11;5.63;;;2.85;;
583;SDS011;27024;54.068;12.116;2024-02-26T05:09:39;5.18;;;2.70;;
583;SDS011;27024;54.068;12.116;2024-02-26T05:12:06;6.80;;;3.80;;
583;SDS011;27024;54.068;12.116;2024-02-26T05:14:33;6.05;;;3.35;;
583;SDS011;27024;54.068;12.116;2024-02-26T05:17:00;4.25;;;2.50;;
583;SDS011;27024;54.068;12.116;2024-02-26T05:19:28;4.93;;;3.25;;
583;SDS011;27024;54.068;12.116;2024-02-26T05:21:55;5.05;;;3.42;;
583;SDS011;27024;54.068;12.116;2024-02-26T05:24:22;6.40;;;3.40;;
583;SDS011;27024;54.068;12.116;2024-02-26T05:26:49;4.95;;;3.50;;
583;SDS011;27024;54.068;12.116;2024-02-26T05:29:16;5.85;;;3.65;;
583;SDS011;27024;54.068;12.116;2024-02-26T05:31:43;5.50;;;3.28;;
583;SDS011;27024;54.068;12.116;2024-02-26T05:34:10;5.20;;;3.83;;
583;SDS011;27024;54.068;12.116;2024-02-26T05:36:38;8.88;;;3.00;;
583;SDS011;27024;54.068;12.116;2024-02-26T05:39:05;8.77;;;3.97;;
583;SDS011;27024;54.068;12.116;2024-02-26T05:41:32;7.03;;;3.20;;
583;SDS011;27024;54.068;12.116;2024-02-26T05:43:59;5.97;;;2.85;;
583;SDS011;27024;54.068;12.116;2024-02-26T05:46:26;6.03;;;3.42;;
583;SDS011;27024;54.068;12.116;2024-02-26T05:48:54;5.28;;;3.17;;
583;SDS011;27024;54.068;12.116;2024-02-26T05:51:22;6.32;;;4.10;;
583;SDS011;27024;54.068;12.116;2024-02-26T05:53:49;5.00;;;3.40;;
583;SDS011;27024;54.068;12.116;2024-02-26T05:56:21;5.90;;;3.78;;
583;SDS011;27024;54.068;12.116;2024-02-26T05:58:49;7.65;;;3.40;;
583;SDS011;27024;54.068;12.116;2024-02-26T06:01:17;5.07;;;3.00;;
583;SDS011;27024;54.068;12.116;2024-02-26T06:03:44;4.68;;;3.58;;
583;SDS011;27024;54.068;12.116;2024-02-26T06:06:12;5.47;;;3.88;;
583;SDS011;27024;54.068;12.116;2024-02-26T06:08:41;4.70;;;3.75;;
583;SDS011;27024;54.068;12.116;2024-02-26T06:11:08;5.20;;;3.95;;
583;SDS011;27024;54.068;12.116;2024-02-26T06:13:35;5.38;;;4.03;;
583;SDS011;27024;54.068;12.116;2024-02-26T06:16:02;5.25;;;3.67;;
583;SDS011;27024;54.068;12.116;2024-02-26T06:18:30;5.70;;;3.20;;
583;SDS011;27024;54.068;12.116;2024-02-26T06:20:57;6.75;;;3.85;;
583;SDS011;27024;54.068;12.116;2024-02-26T06:23:24;6.38;;;3.13;;
583;SDS011;27024;54.068;12.116;2024-02-26T06:25:52;5.00;;;3.08;;
583;SDS011;27024;54.068;12.116;2024-02-26T06:28:19;5.88;;;3.88;;
583;SDS011;27024;54.068;12.116;2024-02-26T06:30:46;8.10;;;3.13;;
583;SDS011;27024;54.068;12.116;2024-02-26T06:33:13;7.97;;;4.45;;
583;SDS011;27024;54.068;12.116;2024-02-26T06:35:41;4.95;;;3.03;;
583;SDS011;27024;54.068;12.116;2024-02-26T06:38:08;8.85;;;2.85;;
583;SDS011;27024;54.068;12.116;2024-02-26T06:40:36;8.32;;;3.00;;
583;SDS011;27024;54.068;12.116;2024-02-26T06:43:03;5.85;;;3.03;;
583;SDS011;27024;54.068;12.116;2024-02-26T06:45:30;8.60;;;4.63;;
583;SDS011;27024;54.068;12.116;2024-02-26T06:47:57;6.15;;;3.17;;
583;SDS011;27024;54.068;12.116;2024-02-26T06:50:24;8.63;;;3.95;;
583;SDS011;27024;54.068;12.116;2024-02-26T06:52:51;5.88;;;3.25;;
583;SDS011;27024;54.068;12.116;2024-02-26T06:55:18;5.50;;;3.40;;
583;SDS011;27024;54.068;12.116;2024-02-26T06:57:45;8.02;;;4.30;;
583;SDS011;27024;54.068;12.116;2024-02-26T07:00:12;7.05;;;3.50;;
583;SDS011;27024;54.068;12.116;2024-02-26T07:02:42;6.68;;;3.22;;
583;SDS011;27024;54.068;12.116;2024-02-26T07:05:10;5.60;;;3.42;;
583;SDS011;27024;54.068;12.116;2024-02-26T07:07:37;5.88;;;3.63;;
583;SDS011;27024;54.068;12.116;2024-02-26T07:10:04;9.20;;;3.72;;
583;SDS011;27024;54.068;12.116;2024-02-26T07:12:32;5.75;;;3.40;;
583;SDS011;27024;54.068;12.116;2024-02-26T07:15:00;5.00;;;2.97;;
583;SDS011;27024;54.068;12.116;2024-02-26T07:17:27;6.15;;;3.70;;
583;SDS011;27024;54.068;12.116;2024-02-26T07:19:54;6.32;;;3.83;;
583;SDS011;27024;54.068;12.116;2024-02-26T07:22:22;6.07;;;3.97;;
583;SDS011;27024;54.068;12.116;2024-02-26T07:24:49;5.93;;;3.97;;
583;SDS011;27024;54.068;12.116;2024-02-26T07:27:16;10.98;;;3.83;;
583;SDS011;27024;54.068;12.116;2024-02-26T07:29:44;10.32;;;3.60;;
583;SDS011;27024;54.068;12.116;2024-02-26T07:32:11;7.63;;;3.83;;
583;SDS011;27024;54.068;12.116;2024-02-26T07:34:38;10.32;;;3.80;;
583;SDS011;27024;54.068;12.116;2024-02-26T07:37:08;7.55;;;3.58;;
583;SDS011;27024;54.068;12.116;2024-02-26T07:39:35;6.78;;;3.90;;
583;SDS011;27024;54.068;12.116;2024-02-26T07:42:03;6.03;;;3.80;;
583;SDS011;27024;54.068;12.116;2024-02-26T07:44:31;6.20;;;3.58;;
583;SDS011;27024;54.068;12.116;2024-02-26T07:46:58;7.13;;;4.43;;
583;SDS011;27024;54.068;12.116;2024-02-26T07:49:25;7.05;;;4.75;;
583;SDS011;27024;54.068;12.116;2024-02-26T07:51:52;7.72;;;4.55;;
583;SDS011;27024;54.068;12.116;2024-02-26T07:54:19;6.10;;;4.00;;
583;SDS011;27024;54.068;12.116;2024-02-26T07:56:46;6.30;;;3.40;;
583;SDS011;27024;54.068;12.116;2024-02-26T07:59:13;6.85;;;4.05;;
583;SDS011;27024;54.068;12.116;2024-02-26T08:01:40;8.25;;;4.38;;
583;SDS011;27024;54.068;12.116;2024-02-26T08:04:08;5.53;;;3.80;;
583;SDS011;27024;54.068;12.116;2024-02-26T08:06:35;8.40;;;4.75;;
583;SDS011;27024;54.068;12.116;2024-02-26T08:09:04;6.43;;;3.90;;
583;SDS011;27024;54.068;12.116;2024-02-26T08:11:31;7.47;;;4.82;;
583;SDS011;27024;54.068;12.116;2024-02-26T08:13:58;7.32;;;4.75;;
583;SDS011;27024;54.068;12.116;2024-02-26T08:16:25;6.18;;;4.22;;
583;SDS011;27024;54.068;12.116;2024-02-26T08:18:53;5.78;;;4.07;;
583;SDS011;27024;54.068;12.116;2024-02-26T08:21:20;7.75;;;4.25;;
583;SDS011;27024;54.068;12.116;2024-02-26T08:23:47;10.65;;;4.45;;
583;SDS011;27024;54.068;12.116;2024-02-26T08:26:14;13.65;;;4.60;;
583;SDS011;27024;54.068;12.116;2024-02-26T08:28:41;6.88;;;4.72;;
583;SDS011;27024;54.068;12.116;2024-02-26T08:31:08;6.35;;;4.70;;
583;SDS011;27024;54.068;12.116;2024-02-26T08:33:36;8.23;;;4.72;;
583;SDS011;27024;54.068;12.116;2024-02-26T08:36:07;7.13;;;5.03;;
583;SDS011;27024;54.068;12.116;2024-02-26T08:38:34;7.95;;;4.63;;
583;SDS011;27024;54.068;12.116;2024-02-26T08:41:02;7.20;;;4.47;;
583;SDS011;27024;54.068;12.116;2024-02-26T08:43:29;8.88;;;4.85;;
583;SDS011;27024;54.068;12.116;2024-02-26T08:45:56;9.50;;;5.53;;
583;SDS011;27024;54.068;12.116;2024-02-26T08:48:24;11.93;;;5.35;;
583;SDS011;27024;54.068;12.116;2024-02-26T08:50:51;7.40;;;5.55;;
583;SDS011;27024;54.068;12.116;2024-02-26T08:53:18;7.93;;;5.00;;
583;SDS011;27024;54.068;12.116;2024-02-26T08:55:57;10.07;;;4.97;;
583;SDS011;27024;54.068;12.116;2024-02-26T08:58:24;15.68;;;5.82;;
583;SDS011;27024;54.068;12.116;2024-02-26T09:00:51;11.25;;;5.57;;
583;SDS011;27024;54.068;12.116;2024-02-26T09:03:18;11.10;;;5.90;;
583;SDS011;27024;54.068;12.116;2024-02-26T09:05:45;12.75;;;6.35;;
583;SDS011;27024;54.068;12.116;2024-02-26T09:08:12;9.30;;;5.57;;
583;SDS011;27024;54.068;12.116;2024-02-26T09:10:39;9.85;;;5.60;;
583;SDS011;27024;54.068;12.116;2024-02-26T09:13:06;14.07;;;5.13;;
583;SDS011;27024;54.068;12.116;2024-02-26T09:15:33;8.30;;;5.65;;
583;SDS011;27024;54.068;12.116;2024-02-26T09:18:01;9.20;;;4.80;;
583;SDS011;27024;54.068;12.116;2024-02-26T09:20:29;7.85;;;4.63;;
583;SDS011;27024;54.068;12.116;2024-02-26T09:22:57;8.75;;;4.47;;
583;SDS011;27024;54.068;12.116;2024-02-26T09:25:24;9.68;;;4.15;;
583;SDS011;27024;54.068;12.116;2024-02-26T09:27:51;8.32;;;3.90;;
583;SDS011;27024;54.068;12.116;2024-02-26T09:30:18;6.40;;;3.58;;
583;SDS011;27024;54.068;12.116;2024-02-26T09:32:46;4.43;;;3.00;;
583;SDS011;27024;54.068;12.116;2024-02-26T09:35:14;5.50;;;3.05;;
583;SDS011;27024;54.068;12.116;2024-02-26T09:37:42;4.47;;;2.90;;
583;SDS011;27024;54.068;12.116;2024-02-26T09:40:10;5.60;;;4.43;;
583;SDS011;27024;54.068;12.116;2024-02-26T09:42:42;7.25;;;3.08;;
583;SDS011;27024;54.068;12.116;2024-02-26T09:45:17;4.32;;;2.88;;
583;SDS011;27024;54.068;12.116;2024-02-26T09:47:47;5.05;;;2.40;;
583;SDS011;27024;54.068;12.116;2024-02-26T09:50:16;5.20;;;3.17;;
583;SDS011;27024;54.068;12.116;2024-02-26T09:52:44;6.25;;;2.60;;
583;SDS011;27024;54.068;12.116;2024-02-26T09:55:12;5.80;;;2.97;;
583;SDS011;27024;54.068;12.116;2024-02-26T09:57:39;5.10;;;2.67;;
583;SDS011;27024;54.068;12.116;2024-02-26T10:00:17;6.00;;;2.88;;
583;SDS011;27024;54.068;12.116;2024-02-26T10:02:47;4.68;;;2.97;;
583;SDS011;27024;54.068;12.116;2024-02-26T10:05:18;5.18;;;2.75;;
583;SDS011;27024;54.068;12.116;2024-02-26T10:07:46;4.32;;;2.70;;
583;SDS011;27024;54.068;12.116;2024-02-26T10:10:14;5.72;;;2.80;;
583;SDS011;27024;54.068;12.116;2024-02-26T10:12:41;4.38;;;2.75;;
583;SDS011;27024;54.068;12.116;2024-02-26T10:15:08;4.10;;;3.00;;
583;SDS011;27024;54.068;12.116;2024-02-26T10:17:36;6.68;;;3.38;;
583;SDS011;27024;54.068;12.116;2024-02-26T10:20:38;5.72;;;3.15;;
583;SDS011;27024;54.068;12.116;2024-02-26T10:22:58;6.82;;;3.13;;
583;SDS011;27024;54.068;12.116;2024-02-26T10:25:29;6.22;;;3.20;;
583;SDS011;27024;54.068;12.116;2024-02-26T10:28:01;7.97;;;2.72;;
583;SDS011;27024;54.068;12.116;2024-02-26T10:30:29;4.78;;;2.22;;
583;SDS011;27024;54.068;12.116;2024-02-26T10:32:57;4.18;;;2.33;;
583;SDS011;27024;54.068;12.116;2024-02-26T10:35:24;4.68;;;2.15;;
583;SDS011;27024;54.068;12.116;2024-02-26T10:37:53;4.82;;;1.88;;
583;SDS011;27024;54.068;12.116;2024-02-26T10:40:20;4.00;;;2.35;;
583;SDS011;27024;54.068;12.116;2024-02-26T10:42:47;3.55;;;2.20;;
583;SDS011;27024;54.068;12.116;2024-02-26T10:45:14;4.22;;;1.83;;
583;SDS011;27024;54.068;12.116;2024-02-26T10:47:42;5.50;;;2.20;;
583;SDS011;27024;54.068;12.116;2024-02-26T10:50:09;4.18;;;2.20;;
583;SDS011;27024;54.068;12.116;2024-02-26T10:52:39;5.25;;;2.33;;
583;SDS011;27024;54.068;12.116;2024-02-26T10:55:08;4.47;;;2.08;;
583;SDS011;27024;54.068;12.116;2024-02-26T10:57:47;3.80;;;1.67;;
583;SDS011;27024;54.068;12.116;2024-02-26T11:00:15;3.53;;;1.60;;
583;SDS011;27024;54.068;12.116;2024-02-26T11:02:43;5.53;;;1.85;;
583;SDS011;27024;54.068;12.116;2024-02-26T11:05:12;3.38;;;1.73;;
583;SDS011;27024;54.068;12.116;2024-02-26T11:07:41;3.67;;;1.83;;
583;SDS011;27024;54.068;12.116;2024-02-26T11:10:09;3.40;;;2.00;;
583;SDS011;27024;54.068;12.116;2024-02-26T11:12:38;2.65;;;1.80;;
583;SDS011;27024;54.068;12.116;2024-02-26T11:15:06;3.80;;;1.90;;
583;SDS011;27024;54.068;12.116;2024-02-26T11:17:35;5.28;;;2.33;;
583;SDS011;27024;54.068;12.116;2024-02-26T11:20:05;3.75;;;1.83;;
583;SDS011;27024;54.068;12.116;2024-02-26T11:22:37;6.78;;;1.90;;
583;SDS011;27024;54.068;12.116;2024-02-26T11:25:05;11.57;;;1.80;;
583;SDS011;27024;54.068;12.116;2024-02-26T11:27:36;5.65;;;1.77;;
583;SDS011;27024;54.068;12.116;2024-02-26T11:30:08;3.67;;;1.35;;
583;SDS011;27024;54.068;12.116;2024-02-26T11:32:37;4.20;;;1.58;;
583;SDS011;27024;54.068;12.116;2024-02-26T11:35:05;3.00;;;1.70;;
583;SDS011;27024;54.068;12.116;2024-02-26T11:37:34;4.53;;;1.42;;
583;SDS011;27024;54.068;12.116;2024-02-26T11:40:09;3.63;;;1.85;;
583;SDS011;27024;54.068;12.116;2024-02-26T11:42:44;7.90;;;1.73;;
583;SDS011;27024;54.068;12.116;2024-02-26T11:48:15;3.17;;;1.48;;
583;SDS011;27024;54.068;12.116;2024-02-26T11:50:48;3.75;;;1.52;;
583;SDS011;27024;54.068;12.116;2024-02-26T11:53:27;2.63;;;1.25;;
583;SDS011;27024;54.068;12.116;2024-02-26T11:56:12;3.35;;;1.30;;
583;SDS011;27024;54.068;12.116;2024-02-26T11:58:42;3.67;;;1.60;;
583;SDS011;27024;54.068;12.116;2024-02-26T12:04:19;7.28;;;2.30;;
583;SDS011;27024;54.068;12.116;2024-02-26T12:06:55;6.78;;;2.53;;
583;SDS011;27024;54.068;12.116;2024-02-26T12:09:31;5.18;;;2.38;;
583;SDS011;27024;54.068;12.116;2024-02-26T12:12:02;5.38;;;1.85;;
583;SDS011;27024;54.068;12.116;2024-02-26T12:14:32;5.00;;;2.00;;
583;SDS011;27024;54.068;12.116;2024-02-26T12:17:20;3.67;;;1.60;;
583;SDS011;27024;54.068;12.116;2024-02-26T12:19:49;6.85;;;2.40;;
583;SDS011;27024;54.068;12.116;2024-02-26T12:22:20;10.07;;;4.18;;
583;SDS011;27024;54.068;12.116;2024-02-26T12:24:48;8.40;;;3.10;;
583;SDS011;27024;54.068;12.116;2024-02-26T12:27:25;10.27;;;3.13;;
583;SDS011;27024;54.068;12.116;2024-02-26T12:29:52;5.53;;;1.98;;
583;SDS011;27024;54.068;12.116;2024-02-26T12:32:19;5.50;;;1.85;;
583;SDS011;27024;54.068;12.116;2024-02-26T12:34:47;4.53;;;1.60;;
583;SDS011;27024;54.068;12.116;2024-02-26T12:37:15;6.85;;;1.90;;
583;SDS011;27024;54.068;12.116;2024-02-26T12:39:42;4.70;;;2.00;;
583;SDS011;27024;54.068;12.116;2024-02-26T12:42:09;4.72;;;1.90;;
583;SDS011;27024;54.068;12.116;2024-02-26T12:44:37;4.15;;;1.67;;
583;SDS011;27024;54.068;12.116;2024-02-26T12:47:04;3.70;;;1.48;;
583;SDS011;27024;54.068;12.116;2024-02-26T12:49:31;4.22;;;2.38;;
583;SDS011;27024;54.068;12.116;2024-02-26T12:51:59;4.15;;;1.70;;
583;SDS011;27024;54.068;12.116;2024-02-26T12:54:32;3.92;;;1.67;;
583;SDS011;27024;54.068;12.116;2024-02-26T12:57:01;5.03;;;1.70;;
583;SDS011;27024;54.068;12.116;2024-02-26T12:59:30;4.20;;;1.90;;
583;SDS011;27024;54.068;12.116;2024-02-26T13:01:58;3.72;;;1.77;;
583;SDS011;27024;54.068;12.116;2024-02-26T13:04:26;4.93;;;2.33;;
583;SDS011;27024;54.068;12.116;2024-02-26T13:06:58;4.82;;;2.60;;
583;SDS011;27024;54.068;12.116;2024-02-26T13:09:33;4.78;;;2.05;;
583;SDS011;27024;54.068;12.116;2024-02-26T13:12:04;5.20;;;2.03;;
583;SDS011;27024;54.068;12.116;2024-02-26T13:14:33;5.00;;;2.05;;
583;SDS011;27024;54.068;12.116;2024-02-26T13:17:00;5.43;;;2.00;;
583;SDS011;27024;54.068;12.116;2024-02-26T13:19:28;4.97;;;2.95;;
583;SDS011;27024;54.068;12.116;2024-02-26T13:21:55;7.70;;;2.95;;
583;SDS011;27024;54.068;12.116;2024-02-26T13:24:22;5.47;;;2.20;;
583;SDS011;27024;54.068;12.116;2024-02-26T13:26:55;3.63;;;1.50;;
583;SDS011;27024;54.068;12.116;2024-02-26T13:29:22;4.85;;;2.63;;
583;SDS011;27024;54.068;12.116;2024-02-26T13:31:57;6.90;;;2.85;;
583;SDS011;27024;54.068;12.116;2024-02-26T13:34:25;4.85;;;2.88;;
583;SDS011;27024;54.068;12.116;2024-02-26T13:36:54;6.10;;;2.95;;
583;SDS011;27024;54.068;12.116;2024-02-26T13:39:22;5.22;;;3.03;;
583;SDS011;27024;54.068;12.116;2024-02-26T13:41:53;5.80;;;3.17;;
583;SDS011;27024;54.068;12.116;2024-02-26T13:44:21;7.57;;;3.25;;
583;SDS011;27024;54.068;12.116;2024-02-26T13:46:49;5.57;;;2.85;;
583;SDS011;27024;54.068;12.116;2024-02-26T13:49:17;5.75;;;3.00;;
583;SDS011;27024;54.068;12.116;2024-02-26T13:51:44;6.15;;;2.90;;
583;SDS011;27024;54.068;12.116;2024-02-26T13:54:11;5.00;;;2.67;;
583;SDS011;27024;54.068;12.116;2024-02-26T13:56:41;5.30;;;3.13;;
583;SDS011;27024;54.068;12.116;2024-02-26T13:59:11;5.60;;;3.75;;
583;SDS011;27024;54.068;12.116;2024-02-26T14:01:38;14.85;;;4.30;;
583;SDS011;27024;54.068;12.116;2024-02-26T14:04:05;7.80;;;3.45;;
583;SDS011;27024;54.068;12.116;2024-02-26T14:06:35;5.05;;;3.33;;
583;SDS011;27024;54.068;12.116;2024-02-26T14:09:03;5.55;;;3.13;;
583;SDS011;27024;54.068;12.116;2024-02-26T14:11:31;6.43;;;3.25;;
583;SDS011;27024;54.068;12.116;2024-02-26T14:13:58;5.95;;;3.17;;
583;SDS011;27024;54.068;12.116;2024-02-26T14:16:25;5.97;;;3.50;;
583;SDS011;27024;54.068;12.116;2024-02-26T14:18:52;5.97;;;3.63;;
583;SDS011;27024;54.068;12.116;2024-02-26T14:21:19;5.78;;;3.60;;
583;SDS011;27024;54.068;12.116;2024-02-26T14:23:47;7.05;;;3.63;;
583;SDS011;27024;54.068;12.116;2024-02-26T14:26:14;6.55;;;3.40;;
583;SDS011;27024;54.068;12.116;2024-02-26T14:28:41;6.03;;;3.70;;
583;SDS011;27024;54.068;12.116;2024-02-26T14:31:09;6.22;;;3.88;;
583;SDS011;27024;54.068;12.116;2024-02-26T14:33:37;6.05;;;3.50;;
583;SDS011;27024;54.068;12.116;2024-02-26T14:36:07;5.18;;;2.95;;
583;SDS011;27024;54.068;12.116;2024-02-26T14:38:34;6.95;;;3.40;;
583;SDS011;27024;54.068;12.116;2024-02-26T14:41:02;9.48;;;3.20;;
583;SDS011;27024;54.068;12.116;2024-02-26T14:43:29;5.47;;;3.53;;
583;SDS011;27024;54.068;12.116;2024-02-26T14:46:00;5.32;;;3.13;;
583;SDS011;27024;54.068;12.116;2024-02-26T14:48:30;6.25;;;3.42;;
583;SDS011;27024;54.068;12.116;2024-02-26T14:50:59;5.20;;;3.05;;
583;SDS011;27024;54.068;12.116;2024-02-26T14:53:28;4.60;;;3.30;;
583;SDS011;27024;54.068;12.116;2024-02-26T14:55:55;5.13;;;3.00;;
583;SDS011;27024;54.068;12.116;2024-02-26T14:58:22;5.75;;;2.80;;
583;SDS011;27024;54.068;12.116;2024-02-26T15:00:50;4.40;;;2.95;;
583;SDS011;27024;54.068;12.116;2024-02-26T15:03:18;6.13;;;3.00;;
583;SDS011;27024;54.068;12.116;2024-02-26T15:05:45;4.72;;;2.60;;
583;SDS011;27024;54.068;12.116;2024-02-26T15:08:12;5.63;;;3.20;;
583;SDS011;27024;54.068;12.116;2024-02-26T15:10:43;5.00;;;3.40;;